sensor_id;sensor_type;location;lat;lon;timestamp;P1;durP1;ratioP1;P2;durP2;ratioP2
23519;SDS011;11936;50.820;4.336;2023-05-24T00:01:08;17.75;;;3.85;;
23519;SDS011;11936;50.820;4.336;2023-05-24T00:03:33;15.40;;;3.78;;
23519;SDS011;11936;50.820;4.336;2023-05-24T00:06:03;12.43;;;3.10;;
23519;SDS011;11936;50.820;4.336;2023-05-24T00:08:31;16.08;;;3.85;;
23519;SDS011;11936;50.820;4.336;2023-05-24T00:10:59;13.43;;;3.30;;
23519;SDS011;11936;50.820;4.336;2023-05-24T00:13:25;15.07;;;2.83;;
23519;SDS011;11936;50.820;4.336;2023-05-24T00:15:51;15.73;;;4.15;;
23519;SDS011;11936;50.820;4.336;2023-05-24T00:18:16;18.83;;;3.50;;
23519;SDS011;11936;50.820;4.336;2023-05-24T00:20:43;16.02;;;3.70;;
23519;SDS011;11936;50.820;4.336;2023-05-24T00:23:08;10.55;;;3.58;;
23519;SDS011;11936;50.820;4.336;2023-05-24T00:25:34;13.07;;;3.38;;
23519;SDS011;11936;50.820;4.336;2023-05-24T00:28:00;10.00;;;3.63;;
23519;SDS011;11936;50.820;4.336;2023-05-24T00:30:26;13.25;;;3.78;;
23519;SDS011;11936;50.820;4.336;2023-05-24T00:32:51;15.90;;;3.60;;
23519;SDS011;11936;50.820;4.336;2023-05-24T00:35:17;21.65;;;3.78;;
23519;SDS011;11936;50.820;4.336;2023-05-24T00:37:43;15.27;;;3.53;;
23519;SDS011;11936;50.820;4.336;2023-05-24T00:40:12;15.70;;;3.40;;
23519;SDS011;11936;50.820;4.336;2023-05-24T00:42:38;13.98;;;3.17;;
23519;SDS011;11936;50.820;4.336;2023-05-24T00:45:04;13.10;;;3.30;;
23519;SDS011;11936;50.820;4.336;2023-05-24T00:47:33;18.67;;;3.97;;
23519;SDS011;11936;50.820;4.336;2023-05-24T00:49:58;15.98;;;3.55;;
23519;SDS011;11936;50.820;4.336;2023-05-24T00:52:24;12.10;;;3.85;;
23519;SDS011;11936;50.820;4.336;2023-05-24T00:54:50;14.30;;;3.00;;
23519;SDS011;11936;50.820;4.336;2023-05-24T00:57:16;13.18;;;3.95;;
23519;SDS011;11936;50.820;4.336;2023-05-24T00:59:42;23.75;;;4.30;;
23519;SDS011;11936;50.820;4.336;2023-05-24T01:02:09;17.20;;;4.25;;
23519;SDS011;11936;50.820;4.336;2023-05-24T01:04:36;14.18;;;3.58;;
23519;SDS011;11936;50.820;4.336;2023-05-24T01:07:14;17.65;;;4.20;;
23519;SDS011;11936;50.820;4.336;2023-05-24T01:13:00;17.10;;;3.85;;
23519;SDS011;11936;50.820;4.336;2023-05-24T01:18:19;17.40;;;4.50;;
23519;SDS011;11936;50.820;4.336;2023-05-24T01:21:14;15.80;;;3.85;;
23519;SDS011;11936;50.820;4.336;2023-05-24T01:29:35;13.35;;;3.60;;
23519;SDS011;11936;50.820;4.336;2023-05-24T01:32:02;22.42;;;4.40;;
23519;SDS011;11936;50.820;4.336;2023-05-24T01:34:28;20.10;;;4.13;;
23519;SDS011;11936;50.820;4.336;2023-05-24T01:36:54;16.80;;;4.63;;
23519;SDS011;11936;50.820;4.336;2023-05-24T01:39:20;18.30;;;3.63;;
23519;SDS011;11936;50.820;4.336;2023-05-24T01:49:58;15.70;;;3.97;;
23519;SDS011;11936;50.820;4.336;2023-05-24T01:52:38;18.55;;;4.20;;
23519;SDS011;11936;50.820;4.336;2023-05-24T01:55:08;19.80;;;4.40;;
23519;SDS011;11936;50.820;4.336;2023-05-24T01:57:34;10.52;;;3.78;;
23519;SDS011;11936;50.820;4.336;2023-05-24T02:00:02;17.70;;;4.35;;
23519;SDS011;11936;50.820;4.336;2023-05-24T02:02:29;20.95;;;5.55;;
23519;SDS011;11936;50.820;4.336;2023-05-24T02:04:55;15.68;;;4.28;;
23519;SDS011;11936;50.820;4.336;2023-05-24T02:07:21;18.15;;;4.35;;
23519;SDS011;11936;50.820;4.336;2023-05-24T02:09:46;22.90;;;4.28;;
23519;SDS011;11936;50.820;4.336;2023-05-24T02:12:12;15.18;;;4.53;;
23519;SDS011;11936;50.820;4.336;2023-05-24T02:14:37;15.85;;;3.85;;
23519;SDS011;11936;50.820;4.336;2023-05-24T02:17:03;16.08;;;4.40;;
23519;SDS011;11936;50.820;4.336;2023-05-24T02:19:29;13.70;;;3.80;;
23519;SDS011;11936;50.820;4.336;2023-05-24T02:21:55;16.70;;;3.95;;
23519;SDS011;11936;50.820;4.336;2023-05-24T02:24:21;16.75;;;4.30;;
23519;SDS011;11936;50.820;4.336;2023-05-24T02:26:46;19.15;;;3.92;;
23519;SDS011;11936;50.820;4.336;2023-05-24T02:29:12;9.48;;;3.45;;
23519;SDS011;11936;50.820;4.336;2023-05-24T02:31:38;13.25;;;3.63;;
23519;SDS011;11936;50.820;4.336;2023-05-24T02:34:04;17.35;;;4.03;;
23519;SDS011;11936;50.820;4.336;2023-05-24T02:36:29;10.93;;;4.18;;
23519;SDS011;11936;50.820;4.336;2023-05-24T02:38:56;16.88;;;4.20;;
23519;SDS011;11936;50.820;4.336;2023-05-24T02:41:22;27.00;;;4.20;;
23519;SDS011;11936;50.820;4.336;2023-05-24T02:43:47;17.77;;;4.05;;
23519;SDS011;11936;50.820;4.336;2023-05-24T02:46:13;16.10;;;4.18;;
23519;SDS011;11936;50.820;4.336;2023-05-24T02:48:39;15.85;;;4.55;;
23519;SDS011;11936;50.820;4.336;2023-05-24T02:51:05;14.07;;;3.45;;
23519;SDS011;11936;50.820;4.336;2023-05-24T02:53:31;14.38;;;3.63;;
23519;SDS011;11936;50.820;4.336;2023-05-24T02:55:57;14.82;;;3.67;;
23519;SDS011;11936;50.820;4.336;2023-05-24T02:58:23;17.38;;;4.60;;
23519;SDS011;11936;50.820;4.336;2023-05-24T03:00:52;19.58;;;4.80;;
23519;SDS011;11936;50.820;4.336;2023-05-24T03:03:19;19.90;;;4.35;;
23519;SDS011;11936;50.820;4.336;2023-05-24T03:05:44;13.73;;;4.20;;
23519;SDS011;11936;50.820;4.336;2023-05-24T03:08:10;15.80;;;3.90;;
23519;SDS011;11936;50.820;4.336;2023-05-24T03:10:36;17.10;;;4.57;;
23519;SDS011;11936;50.820;4.336;2023-05-24T03:13:01;15.88;;;4.75;;
23519;SDS011;11936;50.820;4.336;2023-05-24T03:15:27;14.43;;;3.97;;
23519;SDS011;11936;50.820;4.336;2023-05-24T03:17:52;12.43;;;4.13;;
23519;SDS011;11936;50.820;4.336;2023-05-24T03:20:18;13.63;;;3.63;;
23519;SDS011;11936;50.820;4.336;2023-05-24T03:22:45;14.10;;;3.60;;
23519;SDS011;11936;50.820;4.336;2023-05-24T03:25:10;15.20;;;4.18;;
23519;SDS011;11936;50.820;4.336;2023-05-24T03:27:36;19.58;;;3.83;;
23519;SDS011;11936;50.820;4.336;2023-05-24T03:30:02;22.45;;;4.90;;
23519;SDS011;11936;50.820;4.336;2023-05-24T03:32:30;20.25;;;4.55;;
23519;SDS011;11936;50.820;4.336;2023-05-24T03:34:56;18.38;;;3.75;;
23519;SDS011;11936;50.820;4.336;2023-05-24T03:37:24;18.40;;;4.47;;
23519;SDS011;11936;50.820;4.336;2023-05-24T03:39:50;21.48;;;4.20;;
23519;SDS011;11936;50.820;4.336;2023-05-24T03:42:15;18.83;;;4.38;;
23519;SDS011;11936;50.820;4.336;2023-05-24T03:44:42;20.30;;;4.32;;
23519;SDS011;11936;50.820;4.336;2023-05-24T03:47:08;18.10;;;4.40;;
23519;SDS011;11936;50.820;4.336;2023-05-24T03:49:34;18.38;;;4.28;;
23519;SDS011;11936;50.820;4.336;2023-05-24T03:51:59;16.35;;;3.88;;
23519;SDS011;11936;50.820;4.336;2023-05-24T03:54:25;22.55;;;5.00;;
23519;SDS011;11936;50.820;4.336;2023-05-24T03:56:51;12.43;;;4.30;;
23519;SDS011;11936;50.820;4.336;2023-05-24T03:59:17;18.23;;;4.15;;
23519;SDS011;11936;50.820;4.336;2023-05-24T04:01:43;17.88;;;4.18;;
23519;SDS011;11936;50.820;4.336;2023-05-24T04:04:09;18.27;;;4.57;;
23519;SDS011;11936;50.820;4.336;2023-05-24T04:06:34;15.88;;;4.40;;
23519;SDS011;11936;50.820;4.336;2023-05-24T04:09:00;13.75;;;3.67;;
23519;SDS011;11936;50.820;4.336;2023-05-24T04:11:26;22.25;;;5.05;;
23519;SDS011;11936;50.820;4.336;2023-05-24T04:13:56;14.23;;;4.30;;
23519;SDS011;11936;50.820;4.336;2023-05-24T04:16:24;17.60;;;4.82;;
23519;SDS011;11936;50.820;4.336;2023-05-24T04:18:51;10.75;;;3.60;;
23519;SDS011;11936;50.820;4.336;2023-05-24T04:21:20;14.40;;;4.53;;
23519;SDS011;11936;50.820;4.336;2023-05-24T04:23:46;24.15;;;5.95;;
23519;SDS011;11936;50.820;4.336;2023-05-24T04:26:12;18.75;;;5.07;;
23519;SDS011;11936;50.820;4.336;2023-05-24T04:28:38;24.33;;;4.68;;
23519;SDS011;11936;50.820;4.336;2023-05-24T04:31:04;21.55;;;4.20;;
23519;SDS011;11936;50.820;4.336;2023-05-24T04:33:30;21.88;;;4.43;;
23519;SDS011;11936;50.820;4.336;2023-05-24T04:35:56;15.45;;;4.05;;
23519;SDS011;11936;50.820;4.336;2023-05-24T04:38:27;17.10;;;4.07;;
23519;SDS011;11936;50.820;4.336;2023-05-24T04:40:59;19.55;;;4.47;;
23519;SDS011;11936;50.820;4.336;2023-05-24T04:45:51;19.80;;;4.97;;
23519;SDS011;11936;50.820;4.336;2023-05-24T04:48:18;16.60;;;5.20;;
23519;SDS011;11936;50.820;4.336;2023-05-24T04:50:51;26.60;;;5.50;;
23519;SDS011;11936;50.820;4.336;2023-05-24T04:53:19;15.23;;;4.38;;
23519;SDS011;11936;50.820;4.336;2023-05-24T04:55:45;21.27;;;4.57;;
23519;SDS011;11936;50.820;4.336;2023-05-24T04:58:11;17.20;;;5.25;;
23519;SDS011;11936;50.820;4.336;2023-05-24T05:00:37;14.60;;;4.78;;
23519;SDS011;11936;50.820;4.336;2023-05-24T05:03:03;22.70;;;5.72;;
23519;SDS011;11936;50.820;4.336;2023-05-24T05:05:29;22.63;;;4.85;;
23519;SDS011;11936;50.820;4.336;2023-05-24T05:07:55;20.58;;;5.00;;
23519;SDS011;11936;50.820;4.336;2023-05-24T05:10:21;17.15;;;5.65;;
23519;SDS011;11936;50.820;4.336;2023-05-24T05:12:47;18.70;;;5.32;;
23519;SDS011;11936;50.820;4.336;2023-05-24T05:15:12;27.02;;;6.57;;
23519;SDS011;11936;50.820;4.336;2023-05-24T05:17:38;21.77;;;6.00;;
23519;SDS011;11936;50.820;4.336;2023-05-24T05:20:04;23.30;;;5.28;;
23519;SDS011;11936;50.820;4.336;2023-05-24T05:22:32;19.27;;;6.00;;
23519;SDS011;11936;50.820;4.336;2023-05-24T05:24:58;15.20;;;5.00;;
23519;SDS011;11936;50.820;4.336;2023-05-24T05:27:24;25.98;;;5.82;;
23519;SDS011;11936;50.820;4.336;2023-05-24T05:29:50;23.27;;;5.43;;
23519;SDS011;11936;50.820;4.336;2023-05-24T05:32:15;22.65;;;5.55;;
23519;SDS011;11936;50.820;4.336;2023-05-24T05:34:41;20.55;;;6.28;;
23519;SDS011;11936;50.820;4.336;2023-05-24T05:37:07;14.82;;;5.13;;
23519;SDS011;11936;50.820;4.336;2023-05-24T05:39:32;21.17;;;5.35;;
23519;SDS011;11936;50.820;4.336;2023-05-24T05:41:58;21.83;;;6.35;;
23519;SDS011;11936;50.820;4.336;2023-05-24T05:44:25;24.77;;;6.30;;
23519;SDS011;11936;50.820;4.336;2023-05-24T05:46:50;27.00;;;5.60;;
23519;SDS011;11936;50.820;4.336;2023-05-24T05:49:16;22.13;;;6.03;;
23519;SDS011;11936;50.820;4.336;2023-05-24T05:51:43;19.88;;;7.65;;
23519;SDS011;11936;50.820;4.336;2023-05-24T05:54:09;17.40;;;5.28;;
23519;SDS011;11936;50.820;4.336;2023-05-24T05:56:39;27.27;;;6.60;;
23519;SDS011;11936;50.820;4.336;2023-05-24T05:59:18;26.30;;;6.50;;
23519;SDS011;11936;50.820;4.336;2023-05-24T06:01:44;29.10;;;6.85;;
23519;SDS011;11936;50.820;4.336;2023-05-24T06:04:11;26.15;;;6.93;;
23519;SDS011;11936;50.820;4.336;2023-05-24T06:06:37;20.33;;;5.82;;
23519;SDS011;11936;50.820;4.336;2023-05-24T06:09:03;23.23;;;6.15;;
23519;SDS011;11936;50.820;4.336;2023-05-24T06:11:29;26.05;;;6.10;;
23519;SDS011;11936;50.820;4.336;2023-05-24T06:13:55;31.42;;;5.15;;
23519;SDS011;11936;50.820;4.336;2023-05-24T06:16:21;28.40;;;6.35;;
23519;SDS011;11936;50.820;4.336;2023-05-24T06:18:46;15.43;;;5.30;;
23519;SDS011;11936;50.820;4.336;2023-05-24T06:21:14;27.60;;;6.40;;
23519;SDS011;11936;50.820;4.336;2023-05-24T06:23:40;23.85;;;6.45;;
23519;SDS011;11936;50.820;4.336;2023-05-24T06:26:06;20.23;;;4.75;;
23519;SDS011;11936;50.820;4.336;2023-05-24T06:28:36;22.25;;;5.88;;
23519;SDS011;11936;50.820;4.336;2023-05-24T06:31:02;19.35;;;5.85;;
23519;SDS011;11936;50.820;4.336;2023-05-24T06:33:28;24.55;;;6.00;;
23519;SDS011;11936;50.820;4.336;2023-05-24T06:35:55;20.80;;;6.13;;
23519;SDS011;11936;50.820;4.336;2023-05-24T06:38:21;25.20;;;5.25;;
23519;SDS011;11936;50.820;4.336;2023-05-24T06:40:46;21.67;;;6.20;;
23519;SDS011;11936;50.820;4.336;2023-05-24T06:43:12;22.23;;;5.90;;
23519;SDS011;11936;50.820;4.336;2023-05-24T06:45:38;18.52;;;4.93;;
23519;SDS011;11936;50.820;4.336;2023-05-24T06:48:03;20.88;;;4.85;;
23519;SDS011;11936;50.820;4.336;2023-05-24T06:50:29;19.85;;;5.47;;
23519;SDS011;11936;50.820;4.336;2023-05-24T06:52:57;13.63;;;4.40;;
23519;SDS011;11936;50.820;4.336;2023-05-24T06:55:22;17.45;;;4.88;;
23519;SDS011;11936;50.820;4.336;2023-05-24T06:57:48;21.60;;;5.38;;
23519;SDS011;11936;50.820;4.336;2023-05-24T07:00:14;19.13;;;4.55;;
23519;SDS011;11936;50.820;4.336;2023-05-24T07:02:40;18.98;;;5.13;;
23519;SDS011;11936;50.820;4.336;2023-05-24T07:05:06;20.13;;;5.65;;
23519;SDS011;11936;50.820;4.336;2023-05-24T07:07:36;22.20;;;4.88;;
23519;SDS011;11936;50.820;4.336;2023-05-24T07:10:03;17.90;;;4.70;;
23519;SDS011;11936;50.820;4.336;2023-05-24T07:12:30;22.40;;;5.28;;
23519;SDS011;11936;50.820;4.336;2023-05-24T07:14:56;26.25;;;5.80;;
23519;SDS011;11936;50.820;4.336;2023-05-24T07:17:22;31.00;;;5.28;;
23519;SDS011;11936;50.820;4.336;2023-05-24T07:19:47;25.13;;;4.93;;
23519;SDS011;11936;50.820;4.336;2023-05-24T07:22:13;13.75;;;4.55;;
23519;SDS011;11936;50.820;4.336;2023-05-24T07:24:39;16.05;;;4.35;;
23519;SDS011;11936;50.820;4.336;2023-05-24T07:27:04;26.88;;;4.88;;
23519;SDS011;11936;50.820;4.336;2023-05-24T07:29:30;19.77;;;4.70;;
23519;SDS011;11936;50.820;4.336;2023-05-24T07:31:56;22.90;;;5.45;;
23519;SDS011;11936;50.820;4.336;2023-05-24T07:34:22;21.95;;;5.45;;
23519;SDS011;11936;50.820;4.336;2023-05-24T07:36:51;22.85;;;5.07;;
23519;SDS011;11936;50.820;4.336;2023-05-24T07:39:17;16.55;;;4.88;;
23519;SDS011;11936;50.820;4.336;2023-05-24T07:41:43;14.43;;;5.28;;
23519;SDS011;11936;50.820;4.336;2023-05-24T07:44:09;22.00;;;6.47;;
23519;SDS011;11936;50.820;4.336;2023-05-24T07:46:36;19.45;;;5.57;;
23519;SDS011;11936;50.820;4.336;2023-05-24T07:49:01;28.02;;;7.18;;
23519;SDS011;11936;50.820;4.336;2023-05-24T07:51:27;21.17;;;6.15;;
23519;SDS011;11936;50.820;4.336;2023-05-24T07:53:53;18.55;;;6.47;;
23519;SDS011;11936;50.820;4.336;2023-05-24T07:56:18;24.25;;;6.68;;
23519;SDS011;11936;50.820;4.336;2023-05-24T07:58:45;18.30;;;5.15;;
23519;SDS011;11936;50.820;4.336;2023-05-24T08:01:11;17.58;;;5.68;;
23519;SDS011;11936;50.820;4.336;2023-05-24T08:03:37;17.30;;;5.60;;
23519;SDS011;11936;50.820;4.336;2023-05-24T08:06:03;22.65;;;6.35;;
23519;SDS011;11936;50.820;4.336;2023-05-24T08:08:29;28.40;;;5.85;;
23519;SDS011;11936;50.820;4.336;2023-05-24T08:10:55;30.73;;;6.45;;
23519;SDS011;11936;50.820;4.336;2023-05-24T08:13:20;21.92;;;6.57;;
23519;SDS011;11936;50.820;4.336;2023-05-24T08:15:46;19.42;;;5.38;;
23519;SDS011;11936;50.820;4.336;2023-05-24T08:18:12;21.77;;;6.25;;
23519;SDS011;11936;50.820;4.336;2023-05-24T08:20:38;18.25;;;6.00;;
23519;SDS011;11936;50.820;4.336;2023-05-24T08:23:04;19.25;;;5.82;;
23519;SDS011;11936;50.820;4.336;2023-05-24T08:25:30;24.42;;;6.03;;
23519;SDS011;11936;50.820;4.336;2023-05-24T08:27:56;22.38;;;5.72;;
23519;SDS011;11936;50.820;4.336;2023-05-24T08:30:28;17.90;;;5.25;;
23519;SDS011;11936;50.820;4.336;2023-05-24T08:32:54;15.60;;;5.18;;
23519;SDS011;11936;50.820;4.336;2023-05-24T08:35:21;17.27;;;4.90;;
23519;SDS011;11936;50.820;4.336;2023-05-24T08:37:47;19.25;;;4.70;;
23519;SDS011;11936;50.820;4.336;2023-05-24T08:40:13;17.20;;;4.93;;
23519;SDS011;11936;50.820;4.336;2023-05-24T08:42:39;19.80;;;4.68;;
23519;SDS011;11936;50.820;4.336;2023-05-24T08:45:12;13.95;;;4.85;;
23519;SDS011;11936;50.820;4.336;2023-05-24T08:47:39;17.52;;;5.05;;
23519;SDS011;11936;50.820;4.336;2023-05-24T08:53:22;13.95;;;5.75;;
23519;SDS011;11936;50.820;4.336;2023-05-24T08:56:06;21.00;;;5.80;;
23519;SDS011;11936;50.820;4.336;2023-05-24T08:58:37;25.42;;;6.18;;
23519;SDS011;11936;50.820;4.336;2023-05-24T09:04:44;20.83;;;6.57;;
23519;SDS011;11936;50.820;4.336;2023-05-24T09:16:28;24.65;;;7.32;;
23519;SDS011;11936;50.820;4.336;2023-05-24T09:54:49;35.22;;;9.30;;
23519;SDS011;11936;50.820;4.336;2023-05-24T09:57:16;19.05;;;7.40;;
23519;SDS011;11936;50.820;4.336;2023-05-24T09:59:58;17.00;;;7.97;;
23519;SDS011;11936;50.820;4.336;2023-05-24T10:03:18;21.35;;;7.93;;
23519;SDS011;11936;50.820;4.336;2023-05-24T10:05:44;18.73;;;6.88;;
23519;SDS011;11936;50.820;4.336;2023-05-24T10:08:10;30.80;;;7.57;;
23519;SDS011;11936;50.820;4.336;2023-05-24T10:10:38;22.92;;;7.88;;
23519;SDS011;11936;50.820;4.336;2023-05-24T10:13:05;26.00;;;7.72;;
23519;SDS011;11936;50.820;4.336;2023-05-24T10:15:33;17.42;;;7.50;;
23519;SDS011;11936;50.820;4.336;2023-05-24T10:18:00;24.30;;;8.65;;
23519;SDS011;11936;50.820;4.336;2023-05-24T10:20:26;18.55;;;6.97;;
23519;SDS011;11936;50.820;4.336;2023-05-24T10:22:54;28.90;;;6.88;;
23519;SDS011;11936;50.820;4.336;2023-05-24T10:25:23;19.52;;;8.07;;
23519;SDS011;11936;50.820;4.336;2023-05-24T10:27:53;18.23;;;6.82;;
23519;SDS011;11936;50.820;4.336;2023-05-24T10:33:28;18.75;;;7.95;;
23519;SDS011;11936;50.820;4.336;2023-05-24T10:35:56;20.70;;;7.45;;
23519;SDS011;11936;50.820;4.336;2023-05-24T10:38:22;24.83;;;7.47;;
23519;SDS011;11936;50.820;4.336;2023-05-24T10:40:49;16.45;;;5.82;;
23519;SDS011;11936;50.820;4.336;2023-05-24T10:43:15;13.10;;;5.55;;
23519;SDS011;11936;50.820;4.336;2023-05-24T10:45:42;19.30;;;6.43;;
23519;SDS011;11936;50.820;4.336;2023-05-24T10:50:56;11.30;;;5.28;;
23519;SDS011;11936;50.820;4.336;2023-05-24T10:53:25;30.95;;;6.65;;
23519;SDS011;11936;50.820;4.336;2023-05-24T10:55:55;19.80;;;5.70;;
23519;SDS011;11936;50.820;4.336;2023-05-24T10:59:05;19.33;;;5.50;;
23519;SDS011;11936;50.820;4.336;2023-05-24T11:04:06;17.20;;;5.50;;
23519;SDS011;11936;50.820;4.336;2023-05-24T11:06:46;19.35;;;5.95;;
23519;SDS011;11936;50.820;4.336;2023-05-24T11:09:19;15.18;;;5.00;;
23519;SDS011;11936;50.820;4.336;2023-05-24T11:11:46;14.88;;;5.03;;
23519;SDS011;11936;50.820;4.336;2023-05-24T11:14:16;13.77;;;5.40;;
23519;SDS011;11936;50.820;4.336;2023-05-24T11:16:44;16.42;;;5.28;;
23519;SDS011;11936;50.820;4.336;2023-05-24T11:19:15;12.27;;;5.45;;
23519;SDS011;11936;50.820;4.336;2023-05-24T11:21:52;11.35;;;4.15;;
23519;SDS011;11936;50.820;4.336;2023-05-24T11:24:23;16.65;;;5.03;;
23519;SDS011;11936;50.820;4.336;2023-05-24T11:27:11;21.65;;;4.90;;
23519;SDS011;11936;50.820;4.336;2023-05-24T11:32:19;25.70;;;5.50;;
23519;SDS011;11936;50.820;4.336;2023-05-24T11:35:20;18.13;;;4.15;;
23519;SDS011;11936;50.820;4.336;2023-05-24T11:38:08;14.23;;;4.05;;
23519;SDS011;11936;50.820;4.336;2023-05-24T11:40:45;10.25;;;3.40;;
23519;SDS011;11936;50.820;4.336;2023-05-24T11:43:12;10.65;;;3.45;;
23519;SDS011;11936;50.820;4.336;2023-05-24T11:45:40;12.93;;;4.30;;
23519;SDS011;11936;50.820;4.336;2023-05-24T11:48:07;18.65;;;3.80;;
23519;SDS011;11936;50.820;4.336;2023-05-24T11:50:40;19.80;;;4.30;;
23519;SDS011;11936;50.820;4.336;2023-05-24T11:53:11;13.20;;;3.58;;
23519;SDS011;11936;50.820;4.336;2023-05-24T11:55:38;9.40;;;3.58;;
23519;SDS011;11936;50.820;4.336;2023-05-24T11:58:50;12.18;;;4.00;;
23519;SDS011;11936;50.820;4.336;2023-05-24T12:00:56;18.30;;;4.25;;
23519;SDS011;11936;50.820;4.336;2023-05-24T12:03:22;15.30;;;4.22;;
23519;SDS011;11936;50.820;4.336;2023-05-24T12:05:47;15.60;;;4.72;;
23519;SDS011;11936;50.820;4.336;2023-05-24T12:08:13;16.75;;;4.50;;
23519;SDS011;11936;50.820;4.336;2023-05-24T12:10:42;10.88;;;4.38;;
23519;SDS011;11936;50.820;4.336;2023-05-24T12:13:24;16.58;;;4.45;;
23519;SDS011;11936;50.820;4.336;2023-05-24T12:15:53;19.75;;;4.25;;
23519;SDS011;11936;50.820;4.336;2023-05-24T12:18:20;11.90;;;4.45;;
23519;SDS011;11936;50.820;4.336;2023-05-24T12:20:50;16.25;;;3.92;;
23519;SDS011;11936;50.820;4.336;2023-05-24T12:23:22;13.30;;;4.60;;
23519;SDS011;11936;50.820;4.336;2023-05-24T12:25:49;12.43;;;4.10;;
23519;SDS011;11936;50.820;4.336;2023-05-24T12:28:18;29.55;;;4.90;;
23519;SDS011;11936;50.820;4.336;2023-05-24T12:30:47;23.95;;;4.18;;
23519;SDS011;11936;50.820;4.336;2023-05-24T12:33:13;12.45;;;4.25;;
23519;SDS011;11936;50.820;4.336;2023-05-24T12:35:39;16.20;;;4.20;;
23519;SDS011;11936;50.820;4.336;2023-05-24T12:38:09;17.65;;;4.45;;
23519;SDS011;11936;50.820;4.336;2023-05-24T12:40:36;12.73;;;4.22;;
23519;SDS011;11936;50.820;4.336;2023-05-24T12:43:02;15.93;;;4.72;;
23519;SDS011;11936;50.820;4.336;2023-05-24T12:45:28;10.23;;;4.40;;
23519;SDS011;11936;50.820;4.336;2023-05-24T12:47:59;16.65;;;4.30;;
23519;SDS011;11936;50.820;4.336;2023-05-24T12:50:26;38.00;;;5.47;;
23519;SDS011;11936;50.820;4.336;2023-05-24T12:52:52;19.25;;;4.72;;
23519;SDS011;11936;50.820;4.336;2023-05-24T12:55:18;9.00;;;3.53;;
23519;SDS011;11936;50.820;4.336;2023-05-24T12:57:46;9.93;;;3.83;;
23519;SDS011;11936;50.820;4.336;2023-05-24T13:00:18;12.27;;;4.20;;
23519;SDS011;11936;50.820;4.336;2023-05-24T13:02:45;12.73;;;4.45;;
23519;SDS011;11936;50.820;4.336;2023-05-24T13:05:11;12.02;;;3.95;;
23519;SDS011;11936;50.820;4.336;2023-05-24T13:07:37;8.45;;;3.53;;
23519;SDS011;11936;50.820;4.336;2023-05-24T13:10:03;14.55;;;4.13;;
23519;SDS011;11936;50.820;4.336;2023-05-24T13:12:32;14.20;;;3.88;;
23519;SDS011;11936;50.820;4.336;2023-05-24T13:14:58;16.58;;;4.32;;
23519;SDS011;11936;50.820;4.336;2023-05-24T13:17:24;48.50;;;10.68;;
23519;SDS011;11936;50.820;4.336;2023-05-24T13:19:50;13.68;;;5.13;;
23519;SDS011;11936;50.820;4.336;2023-05-24T13:22:15;13.38;;;4.45;;
23519;SDS011;11936;50.820;4.336;2023-05-24T13:24:41;10.75;;;3.83;;
23519;SDS011;11936;50.820;4.336;2023-05-24T13:27:07;14.32;;;4.60;;
23519;SDS011;11936;50.820;4.336;2023-05-24T13:29:32;31.38;;;5.85;;
23519;SDS011;11936;50.820;4.336;2023-05-24T13:31:58;27.25;;;4.82;;
23519;SDS011;11936;50.820;4.336;2023-05-24T13:34:24;17.15;;;4.97;;
23519;SDS011;11936;50.820;4.336;2023-05-24T13:36:53;16.23;;;4.20;;
23519;SDS011;11936;50.820;4.336;2023-05-24T13:39:20;10.60;;;4.70;;
23519;SDS011;11936;50.820;4.336;2023-05-24T13:41:46;12.70;;;4.78;;
23519;SDS011;11936;50.820;4.336;2023-05-24T13:44:13;11.10;;;4.25;;
23519;SDS011;11936;50.820;4.336;2023-05-24T13:46:39;19.23;;;5.65;;
23519;SDS011;11936;50.820;4.336;2023-05-24T13:49:06;12.48;;;4.70;;
23519;SDS011;11936;50.820;4.336;2023-05-24T13:51:33;17.13;;;4.10;;
23519;SDS011;11936;50.820;4.336;2023-05-24T13:56:29;18.52;;;4.78;;
23519;SDS011;11936;50.820;4.336;2023-05-24T13:58:58;14.20;;;4.88;;
23519;SDS011;11936;50.820;4.336;2023-05-24T14:01:25;17.13;;;4.18;;
23519;SDS011;11936;50.820;4.336;2023-05-24T14:03:51;15.15;;;4.28;;
23519;SDS011;11936;50.820;4.336;2023-05-24T14:06:17;13.52;;;4.38;;
23519;SDS011;11936;50.820;4.336;2023-05-24T14:08:44;15.02;;;4.72;;
23519;SDS011;11936;50.820;4.336;2023-05-24T14:11:10;15.55;;;4.13;;
23519;SDS011;11936;50.820;4.336;2023-05-24T14:13:38;46.00;;;6.55;;
23519;SDS011;11936;50.820;4.336;2023-05-24T14:16:05;22.00;;;4.85;;
23519;SDS011;11936;50.820;4.336;2023-05-24T14:18:31;21.95;;;5.70;;
23519;SDS011;11936;50.820;4.336;2023-05-24T14:20:57;11.35;;;4.55;;
23519;SDS011;11936;50.820;4.336;2023-05-24T14:23:23;12.50;;;4.00;;
23519;SDS011;11936;50.820;4.336;2023-05-24T14:25:48;14.63;;;4.47;;
23519;SDS011;11936;50.820;4.336;2023-05-24T14:28:16;45.83;;;6.15;;
23519;SDS011;11936;50.820;4.336;2023-05-24T14:30:42;22.92;;;4.82;;
23519;SDS011;11936;50.820;4.336;2023-05-24T14:33:07;12.52;;;4.15;;
23519;SDS011;11936;50.820;4.336;2023-05-24T14:35:35;14.20;;;4.45;;
23519;SDS011;11936;50.820;4.336;2023-05-24T14:40:30;13.48;;;4.45;;
23519;SDS011;11936;50.820;4.336;2023-05-24T14:42:56;15.55;;;4.45;;
23519;SDS011;11936;50.820;4.336;2023-05-24T14:45:22;18.05;;;4.97;;
23519;SDS011;11936;50.820;4.336;2023-05-24T14:47:48;15.68;;;5.28;;
23519;SDS011;11936;50.820;4.336;2023-05-24T14:50:13;16.92;;;5.20;;
23519;SDS011;11936;50.820;4.336;2023-05-24T14:52:39;15.65;;;5.03;;
23519;SDS011;11936;50.820;4.336;2023-05-24T14:55:05;16.38;;;4.65;;
23519;SDS011;11936;50.820;4.336;2023-05-24T14:57:31;12.15;;;4.97;;
23519;SDS011;11936;50.820;4.336;2023-05-24T14:59:57;25.20;;;5.10;;
23519;SDS011;11936;50.820;4.336;2023-05-24T15:02:23;15.10;;;5.13;;
23519;SDS011;11936;50.820;4.336;2023-05-24T15:04:48;15.32;;;4.30;;
23519;SDS011;11936;50.820;4.336;2023-05-24T15:07:14;16.67;;;4.57;;
23519;SDS011;11936;50.820;4.336;2023-05-24T15:09:40;15.73;;;4.75;;
23519;SDS011;11936;50.820;4.336;2023-05-24T15:12:06;17.75;;;4.72;;
23519;SDS011;11936;50.820;4.336;2023-05-24T15:14:32;85.18;;;8.98;;
23519;SDS011;11936;50.820;4.336;2023-05-24T15:16:58;24.58;;;4.93;;
23519;SDS011;11936;50.820;4.336;2023-05-24T15:19:24;21.15;;;5.80;;
23519;SDS011;11936;50.820;4.336;2023-05-24T15:21:50;18.33;;;4.90;;
23519;SDS011;11936;50.820;4.336;2023-05-24T15:24:15;16.95;;;4.20;;
23519;SDS011;11936;50.820;4.336;2023-05-24T15:26:41;16.08;;;5.13;;
23519;SDS011;11936;50.820;4.336;2023-05-24T15:29:06;15.30;;;5.38;;
23519;SDS011;11936;50.820;4.336;2023-05-24T15:31:33;16.65;;;4.90;;
23519;SDS011;11936;50.820;4.336;2023-05-24T15:33:58;23.13;;;4.80;;
23519;SDS011;11936;50.820;4.336;2023-05-24T15:36:24;18.63;;;4.88;;
23519;SDS011;11936;50.820;4.336;2023-05-24T15:38:50;14.57;;;4.57;;
23519;SDS011;11936;50.820;4.336;2023-05-24T15:41:15;9.45;;;3.45;;
23519;SDS011;11936;50.820;4.336;2023-05-24T15:43:41;10.88;;;3.97;;
23519;SDS011;11936;50.820;4.336;2023-05-24T15:46:07;18.08;;;4.85;;
23519;SDS011;11936;50.820;4.336;2023-05-24T15:48:32;24.30;;;5.20;;
23519;SDS011;11936;50.820;4.336;2023-05-24T15:50:58;17.25;;;4.10;;
23519;SDS011;11936;50.820;4.336;2023-05-24T15:53:24;19.00;;;4.65;;
23519;SDS011;11936;50.820;4.336;2023-05-24T15:55:50;13.05;;;4.47;;
23519;SDS011;11936;50.820;4.336;2023-05-24T15:58:15;20.58;;;4.07;;
23519;SDS011;11936;50.820;4.336;2023-05-24T16:00:42;15.55;;;3.90;;
23519;SDS011;11936;50.820;4.336;2023-05-24T16:03:08;15.45;;;4.72;;
23519;SDS011;11936;50.820;4.336;2023-05-24T16:05:33;16.98;;;4.13;;
23519;SDS011;11936;50.820;4.336;2023-05-24T16:08:00;12.15;;;4.00;;